Time;durP1;ratioP1;P1;durP2;ratioP2;P2;SDS_P1;SDS_P2;PMS_P1;PMS_P2;Temp;Humidity;BMP_temperature;BMP_pressure;BME280_temperature;BME280_humidity;BME280_pressure;Samples;Min_cycle;Max_cycle;Signal;HPM_P1;HPM_P2
2023/04/18 00:00:23;;;;;;;0.50;0.50;;;;;;;6.22;96.16;97281.28;29395;230;63009;-58
2023/04/18 00:00:55;;;;;;;0.50;0.50;;;;;;;6.22;96.14;97283.97;29395;217;63004;-57
2023/04/18 00:01:27;;;;;;;0.50;0.50;;;;;;;6.22;96.37;97276.69;29394;214;64013;-59
2023/04/18 00:01:59;;;;;;;0.50;0.50;;;;;;;6.25;96.57;97275.34;29395;289;63004;-58
2023/04/18 00:02:32;;;;;;;0.50;0.50;;;;;;;6.26;96.19;97276.97;29395;216;63009;-58
2023/04/18 00:03:03;;;;;;;0.50;0.50;;;;;;;6.25;96.53;97278.03;29395;224;63016;-58
2023/04/18 00:03:37;;;;;;;0.50;0.50;;;;;;;6.25;96.52;97278.03;29395;203;63009;-59
2023/04/18 00:04:08;;;;;;;0.57;0.57;;;;;;;6.25;96.94;97280.72;29395;234;63005;-61
2023/04/18 00:04:40;;;;;;;0.50;0.50;;;;;;;6.25;96.83;97283.44;29395;228;63009;-62
2023/04/18 00:05:11;;;;;;;1.10;1.10;;;;;;;6.25;96.89;97278.03;29395;241;63005;-59
2023/04/18 00:05:42;;;;;;;0.50;0.50;;;;;;;6.26;96.72;97276.97;29395;222;63009;-58
2023/04/18 00:06:14;;;;;;;0.60;0.60;;;;;;;6.26;96.48;97285.06;29395;230;63005;-58
2023/04/18 00:06:48;;;;;;;0.60;0.60;;;;;;;6.26;96.66;97274.28;29394;218;64013;-58
2023/04/18 00:07:19;;;;;;;0.50;0.50;;;;;;;6.27;96.71;97275.91;29395;202;63017;-58
2023/04/18 00:07:52;;;;;;;0.50;0.50;;;;;;;6.27;96.57;97278.59;29395;202;63009;-58
2023/04/18 00:08:23;;;;;;;0.50;0.50;;;;;;;6.27;95.73;97282.09;29395;218;63004;-58
2023/04/18 00:08:55;;;;;;;0.52;0.52;;;;;;;6.26;95.88;97276.97;29395;197;63009;-57
2023/04/18 00:09:27;;;;;;;0.50;0.50;;;;;;;6.26;95.58;97276.97;29395;222;63016;-62
2023/04/18 00:10:02;;;;;;;0.50;0.50;;;;;;;6.26;95.74;97274.28;29395;212;63008;-57
2023/04/18 00:10:33;;;;;;;0.55;0.55;;;;;;;6.26;95.57;97272.41;29395;197;63005;-58
2023/04/18 00:11:04;;;;;;;0.43;0.43;;;;;;;6.26;95.07;97276.97;29395;203;63009;-58
2023/04/18 00:11:36;;;;;;;0.50;0.50;;;;;;;6.25;95.62;97278.03;29395;250;63005;-58
2023/04/18 00:12:10;;;;;;;0.50;0.50;;;;;;;6.26;95.61;97268.88;29394;254;64013;-58
2023/04/18 00:12:41;;;;;;;0.60;0.60;;;;;;;6.26;95.68;97272.41;29395;244;63005;-59
2023/04/18 00:13:13;;;;;;;0.50;0.50;;;;;;;6.26;95.49;97275.09;29395;210;63009;-58
2023/04/18 00:13:46;;;;;;;0.60;0.60;;;;;;;6.27;95.68;97282.09;29395;216;63005;-58
2023/04/18 00:14:21;;;;;;;0.50;0.50;;;;;;;6.27;95.31;97270.50;29395;202;63009;-58
2023/04/18 00:14:53;;;;;;;0.50;0.50;;;;;;;6.26;95.14;97272.41;29395;202;63008;-59
2023/04/18 00:15:25;;;;;;;0.50;0.50;;;;;;;6.25;95.23;97268.06;29395;198;63004;-58
2023/04/18 00:15:56;;;;;;;0.60;0.60;;;;;;;6.26;95.18;97268.88;29395;209;63004;-58
2023/04/18 00:16:27;;;;;;;0.50;0.50;;;;;;;6.24;95.04;97271.03;29395;305;63009;-63
2023/04/18 00:17:01;;;;;;;0.57;0.57;;;;;;;6.25;95.29;97272.66;29395;215;63004;-58
2023/04/18 00:17:32;;;;;;;0.50;0.50;;;;;;;6.25;95.60;97272.66;29394;277;64013;-58
2023/04/18 00:18:04;;;;;;;0.50;0.50;;;;;;;6.26;95.57;97275.09;29395;268;63005;-57
2023/04/18 00:18:36;;;;;;;0.50;0.50;;;;;;;6.28;95.38;97272.16;29395;366;63006;-57
2023/04/18 00:19:08;;;;;;;0.60;0.60;;;;;;;6.30;95.16;97267.31;29395;220;63005;-61
2023/04/18 00:19:42;;;;;;;0.50;0.50;;;;;;;6.29;94.64;97260.28;29395;211;63009;-58
2023/04/18 00:20:13;;;;;;;0.50;0.50;;;;;;;6.28;94.15;97264.87;29395;198;63005;-58
2023/04/18 00:20:45;;;;;;;0.60;0.60;;;;;;;6.28;94.45;97266.75;29395;202;63009;-60
2023/04/18 00:21:16;;;;;;;0.57;0.57;;;;;;;6.28;94.46;97267.56;29395;243;63017;-58
2023/04/18 00:21:48;;;;;;;0.50;0.50;;;;;;;6.28;94.24;97266.75;29395;271;63009;-58
2023/04/18 00:22:22;;;;;;;0.50;0.50;;;;;;;6.28;94.42;97264.06;29394;248;64004;-58
2023/04/18 00:22:54;;;;;;;0.50;0.50;;;;;;;6.27;94.44;97270.50;29394;202;64013;-60
2023/04/18 00:23:26;;;;;;;0.50;0.50;;;;;;;6.26;95.00;97263.50;29395;226;63004;-58
2023/04/18 00:23:58;;;;;;;0.50;0.50;;;;;;;6.27;94.77;97265.13;29395;197;63013;-57
2023/04/18 00:24:29;;;;;;;0.50;0.50;;;;;;;6.25;94.87;97261.88;29395;283;63004;-62
2023/04/18 00:25:01;;;;;;;3.50;3.40;;;;;;;6.25;94.77;97261.88;29394;207;64013;-59
2023/04/18 00:25:32;;;;;;;0.60;0.60;;;;;;;6.24;95.17;97260.25;29395;304;63005;-56
2023/04/18 00:26:04;;;;;;;0.50;0.50;;;;;;;6.24;95.21;97266.44;29395;200;63009;-57
2023/04/18 00:26:36;;;;;;;0.50;0.50;;;;;;;6.23;95.03;97262.16;29395;235;63005;-57
2023/04/18 00:27:07;;;;;;;0.50;0.50;;;;;;;6.24;95.60;97262.94;29395;257;63009;-56
2023/04/18 00:27:38;;;;;;;0.50;0.50;;;;;;;6.25;95.84;97261.88;29395;218;63005;-56
2023/04/18 00:28:10;;;;;;;0.50;0.50;;;;;;;6.25;96.04;97253.78;29395;285;63009;-56
2023/04/18 00:28:41;;;;;;;0.50;0.50;;;;;;;6.25;95.92;97256.47;29395;378;63005;-57
2023/04/18 00:29:12;;;;;;;0.60;0.60;;;;;;;6.25;95.99;97259.19;29395;284;63009;-57
2023/04/18 00:29:43;;;;;;;0.50;0.50;;;;;;;6.24;95.69;97265.63;29395;197;63004;-58
2023/04/18 00:30:15;;;;;;;0.50;0.50;;;;;;;6.23;95.73;97255.97;29394;238;64013;-57
2023/04/18 00:30:46;;;;;;;0.50;0.50;;;;;;;6.23;95.92;97259.47;29395;295;63015;-58
2023/04/18 00:31:17;;;;;;;0.60;0.60;;;;;;;6.24;96.05;97260.25;29395;280;63009;-57
2023/04/18 00:31:48;;;;;;;0.57;0.57;;;;;;;6.23;95.87;97258.66;29395;320;63004;-57
2023/04/18 00:32:20;;;;;;;0.60;0.60;;;;;;;6.22;95.65;97249.75;29395;210;63008;-58
2023/04/18 00:32:51;;;;;;;0.50;0.50;;;;;;;6.22;95.72;97257.03;29395;211;63005;-57
2023/04/18 00:33:22;;;;;;;0.50;0.50;;;;;;;6.23;96.07;97259.47;29395;241;63009;-57
2023/04/18 00:33:53;;;;;;;0.50;0.50;;;;;;;6.23;96.13;97258.66;29395;206;63005;-58
2023/04/18 00:34:26;;;;;;;0.50;0.50;;;;;;;6.23;96.12;97253.25;29395;256;63005;-58
2023/04/18 00:34:57;;;;;;;0.50;0.50;;;;;;;6.22;95.72;97251.63;29395;273;63005;-58
2023/04/18 00:35:28;;;;;;;0.50;0.50;;;;;;;6.20;95.33;97249.19;29394;205;64013;-58
2023/04/18 00:36:00;;;;;;;0.50;0.50;;;;;;;6.20;95.52;97248.38;29395;224;63008;-58
2023/04/18 00:36:31;;;;;;;0.50;0.50;;;;;;;6.21;95.69;97248.13;29395;297;63009;-58
2023/04/18 00:37:04;;;;;;;0.52;0.52;;;;;;;6.22;95.65;97251.63;29394;207;64009;-57
2023/04/18 00:37:36;;;;;;;0.50;0.50;;;;;;;6.22;95.44;97254.31;29395;248;63009;-57
2023/04/18 00:38:10;;;;;;;0.52;0.52;;;;;;;6.23;95.41;97254.06;29395;196;63004;-58
2023/04/18 00:38:42;;;;;;;0.88;0.88;;;;;;;6.23;95.03;97254.06;29395;335;63009;-58
2023/04/18 00:39:13;;;;;;;0.50;0.50;;;;;;;6.23;95.00;97251.38;29394;203;64009;-59
2023/04/18 00:39:44;;;;;;;0.50;0.50;;;;;;;6.23;94.96;97254.06;29395;363;63008;-58
2023/04/18 00:40:16;;;;;;;0.50;0.50;;;;;;;6.23;95.16;97255.97;29395;205;63005;-57
2023/04/18 00:40:47;;;;;;;0.50;0.50;;;;;;;6.23;95.26;97253.25;29395;308;63009;-57
2023/04/18 00:41:20;;;;;;;0.50;0.50;;;;;;;6.22;95.52;97249.75;29395;230;63005;-57
2023/04/18 00:41:52;;;;;;;0.50;0.50;;;;;;;6.23;95.61;97247.88;29395;206;63009;-57
2023/04/18 00:42:24;;;;;;;0.50;0.50;;;;;;;6.22;95.93;97249.75;29395;222;63005;-57
2023/04/18 00:42:56;;;;;;;0.60;0.60;;;;;;;6.28;95.54;97245.19;29395;204;63009;-58
2023/04/18 00:43:27;;;;;;;0.50;0.50;;;;;;;6.30;95.32;97253.84;29395;218;63011;-57
2023/04/18 00:43:58;;;;;;;0.50;0.50;;;;;;;6.30;94.63;97257.34;29394;261;64013;-57
2023/04/18 00:44:31;;;;;;;0.50;0.50;;;;;;;6.29;94.78;97246.81;29395;353;63004;-57
2023/04/18 00:45:02;;;;;;;0.50;0.50;;;;;;;6.28;94.56;97253.28;29395;223;63009;-57
2023/04/18 00:45:35;;;;;;;0.50;0.50;;;;;;;6.25;94.68;97249.22;29395;202;63010;-59
2023/04/18 00:46:07;;;;;;;0.60;0.60;;;;;;;6.24;94.63;97249.47;29395;239;63008;-59
2023/04/18 00:46:38;;;;;;;0.60;0.60;;;;;;;6.25;94.76;97251.09;29394;217;64002;-57
2023/04/18 00:47:10;;;;;;;0.50;0.50;;;;;;;6.24;94.60;97249.47;29394;245;64013;-58
2023/04/18 00:47:44;;;;;;;0.50;0.50;;;;;;;6.24;95.00;97254.84;29395;254;63004;-59
2023/04/18 00:48:16;;;;;;;0.50;0.50;;;;;;;6.24;95.06;97252.16;29395;254;63009;-57
2023/04/18 00:48:48;;;;;;;0.50;0.50;;;;;;;6.25;95.04;97256.47;29395;233;63005;-57
2023/04/18 00:49:21;;;;;;;0.50;0.50;;;;;;;6.25;95.33;97251.09;29395;289;63009;-58
2023/04/18 00:49:53;;;;;;;0.50;0.50;;;;;;;6.25;94.94;97248.41;29395;241;63018;-57
2023/04/18 00:50:26;;;;;;;0.50;0.50;;;;;;;6.25;95.26;97251.09;29395;215;63009;-58
2023/04/18 00:50:59;;;;;;;0.60;0.60;;;;;;;6.26;95.16;97247.31;29395;207;63005;-58
2023/04/18 00:51:31;;;;;;;0.50;0.50;;;;;;;6.26;95.05;97245.44;29395;357;63017;-57
2023/04/18 00:52:03;;;;;;;0.50;0.50;;;;;;;6.27;95.11;97249.78;29394;256;64009;-58
2023/04/18 00:52:34;;;;;;;0.50;0.50;;;;;;;6.26;94.89;97250.03;29395;197;63009;-58
2023/04/18 00:53:07;;;;;;;0.50;0.50;;;;;;;6.23;94.64;97247.88;29395;238;63004;-58
2023/04/18 00:53:40;;;;;;;0.50;0.50;;;;;;;6.22;94.45;97246.25;29395;233;63008;-59
2023/04/18 00:54:12;;;;;;;0.50;0.50;;;;;;;6.23;94.73;97247.88;29395;220;63009;-59
2023/04/18 00:54:46;;;;;;;0.55;0.55;;;;;;;6.23;94.77;97248.69;29395;268;63009;-58
2023/04/18 00:55:20;;;;;;;0.50;0.50;;;;;;;6.24;94.93;97244.06;29395;255;63005;-59
2023/04/18 00:55:52;;;;;;;0.60;0.60;;;;;;;6.23;95.34;97247.88;29395;249;63009;-59
2023/04/18 00:56:24;;;;;;;0.60;0.60;;;;;;;6.24;95.60;97244.06;29394;203;64009;-58
2023/04/18 00:56:56;;;;;;;0.40;0.40;;;;;;;6.22;94.68;97246.25;29395;226;63009;-58
2023/04/18 00:57:27;;;;;;;0.68;0.68;;;;;;;6.23;94.67;97247.88;29395;271;63005;-57
2023/04/18 00:57:59;;;;;;;0.60;0.60;;;;;;;6.19;93.72;97236.78;29395;198;63009;-59
2023/04/18 00:58:33;;;;;;;0.50;0.50;;;;;;;6.22;93.57;97243.56;29395;197;63009;-58
2023/04/18 00:59:09;;;;;;;0.50;0.50;;;;;;;6.24;93.41;97241.37;29395;222;63009;-58
2023/04/18 00:59:42;;;;;;;0.50;0.50;;;;;;;6.25;93.88;97243.00;29394;217;64009;-58
2023/04/18 01:00:14;;;;;;;0.50;0.50;;;;;;;6.26;93.83;97241.94;29395;269;63009;-60
2023/04/18 01:00:45;;;;;;;0.50;0.50;;;;;;;6.28;93.82;97239.81;29394;221;64009;-59
2023/04/18 01:01:17;;;;;;;0.60;0.60;;;;;;;6.30;93.84;97243.06;29395;211;63008;-58
2023/04/18 01:01:48;;;;;;;0.50;0.50;;;;;;;6.29;93.70;97239.56;29395;208;63004;-59
2023/04/18 01:02:19;;;;;;;0.60;0.60;;;;;;;6.30;93.83;97237.66;29395;271;63017;-60
2023/04/18 01:02:54;;;;;;;0.60;0.60;;;;;;;6.30;93.96;97243.06;29395;197;63017;-59
2023/04/18 01:03:25;;;;;;;0.50;0.50;;;;;;;6.28;94.26;97240.63;29395;207;63018;-58
2023/04/18 01:03:57;;;;;;;0.50;0.50;;;;;;;6.28;94.46;97239.81;29395;244;63005;-58
2023/04/18 01:04:28;;;;;;;0.50;0.50;;;;;;;6.28;94.26;97235.22;29395;226;63009;-59
2023/04/18 01:05:00;;;;;;;0.50;0.50;;;;;;;6.28;94.59;97240.63;29395;347;63005;-58
2023/04/18 01:05:31;;;;;;;0.52;0.52;;;;;;;6.28;94.66;97234.41;29394;205;64013;-58
2023/04/18 01:06:03;;;;;;;0.50;0.50;;;;;;;6.28;94.56;97234.41;29395;238;63005;-57
2023/04/18 01:06:38;;;;;;;0.60;0.60;;;;;;;6.27;94.28;97238.19;29395;212;63009;-59
2023/04/18 01:07:10;;;;;;;0.60;0.60;;;;;;;6.27;94.44;97235.47;29395;231;63004;-58
2023/04/18 01:07:42;;;;;;;0.50;0.50;;;;;;;6.27;94.15;97240.88;29395;210;63009;-58
2023/04/18 01:08:14;;;;;;;0.50;0.50;;;;;;;6.27;94.48;97228.22;29395;215;63004;-60
2023/04/18 01:08:46;;;;;;;0.50;0.50;;;;;;;6.30;94.40;97226.87;29394;204;64013;-58
2023/04/18 01:09:18;;;;;;;0.50;0.50;;;;;;;6.32;94.30;97235.53;29395;209;63004;-58
2023/04/18 01:09:52;;;;;;;0.50;0.50;;;;;;;6.33;94.13;97229.88;29395;227;63009;-58
2023/04/18 01:10:26;;;;;;;0.50;0.50;;;;;;;6.34;94.06;97230.69;29395;217;63005;-58
2023/04/18 01:10:58;;;;;;;0.50;0.50;;;;;;;6.35;94.10;97235.00;29395;227;63009;-60
2023/04/18 01:11:29;;;;;;;0.60;0.60;;;;;;;6.33;94.50;97231.78;29394;225;64009;-58
2023/04/18 01:12:00;;;;;;;0.55;0.55;;;;;;;6.32;94.47;97228.25;29395;205;63009;-59
2023/04/18 01:12:32;;;;;;;0.50;0.50;;;;;;;6.33;94.29;97229.88;29395;220;63005;-58
2023/04/18 01:13:17;;;;;;;0.55;0.55;;;;;;;6.33;94.31;97231.78;29395;217;63009;-57
2023/04/18 01:14:02;;;;;;;0.45;0.45;;;;;;;6.32;94.16;97224.75;29395;227;63004;-58
2023/04/18 01:14:36;;;;;;;0.50;0.50;;;;;;;6.31;94.16;97231.22;29395;220;63009;-58
2023/04/18 01:15:09;;;;;;;0.52;0.52;;;;;;;6.30;94.33;97233.09;29394;222;64009;-58
2023/04/18 01:15:44;;;;;;;0.60;0.60;;;;;;;6.29;94.10;97227.97;29394;222;64013;-58
2023/04/18 01:16:19;;;;;;;0.50;0.50;;;;;;;6.27;94.15;97222.00;29395;296;63004;-58
2023/04/18 01:16:50;;;;;;;0.60;0.60;;;;;;;6.27;93.91;97232.78;29395;202;63008;-58
2023/04/18 01:17:23;;;;;;;0.50;0.50;;;;;;;6.26;93.99;97220.38;29395;209;63005;-59
2023/04/18 01:17:54;;;;;;;0.60;0.60;;;;;;;6.26;93.87;97223.88;29395;281;63009;-59
2023/04/18 01:18:30;;;;;;;0.60;0.60;;;;;;;6.27;93.84;97222.00;29395;285;63005;-58
2023/04/18 01:19:02;;;;;;;1.73;1.73;;;;;;;6.27;94.08;97222.00;29395;230;63009;-58
2023/04/18 01:19:34;;;;;;;0.57;0.57;;;;;;;6.27;94.24;97222.00;29395;197;63005;-58
2023/04/18 01:20:07;;;;;;;0.50;0.50;;;;;;;6.26;94.33;97215.81;29394;215;64013;-58
2023/04/18 01:20:41;;;;;;;0.50;0.50;;;;;;;6.26;94.57;97220.38;29395;260;63005;-57
2023/04/18 01:21:13;;;;;;;0.50;0.50;;;;;;;6.24;94.26;97222.53;29395;218;63009;-58
2023/04/18 01:21:44;;;;;;;0.50;0.50;;;;;;;6.23;94.34;97218.22;29395;255;63004;-58
2023/04/18 01:22:18;;;;;;;0.52;0.52;;;;;;;6.23;94.46;97215.53;29395;218;63009;-58
2023/04/18 01:22:50;;;;;;;0.50;0.50;;;;;;;6.22;95.06;97219.31;29395;206;63004;-58
2023/04/18 01:23:21;;;;;;;1.10;1.10;;;;;;;6.24;95.17;97222.53;29395;208;63009;-57
2023/04/18 01:23:53;;;;;;;0.50;0.50;;;;;;;6.28;94.03;97218.25;29395;321;63004;-58
2023/04/18 01:24:25;;;;;;;0.50;0.50;;;;;;;6.29;94.03;97219.87;29395;348;63008;-57
2023/04/18 01:24:57;;;;;;;0.50;0.50;;;;;;;6.28;93.73;97218.25;29395;238;63005;-58
2023/04/18 01:25:29;;;;;;;0.60;0.60;;;;;;;6.28;93.76;97215.56;29394;245;64014;-59
2023/04/18 01:26:00;;;;;;;0.50;0.50;;;;;;;6.26;93.84;97218.50;29395;210;63015;-58
2023/04/18 01:26:31;;;;;;;0.60;0.60;;;;;;;6.26;93.78;97217.69;29395;224;63009;-58
2023/04/18 01:27:03;;;;;;;0.50;0.50;;;;;;;6.24;94.07;97217.94;29395;231;63005;-58
2023/04/18 01:27:34;;;;;;;0.50;0.50;;;;;;;6.25;93.83;97218.75;29394;209;64013;-62
2023/04/18 01:28:06;;;;;;;0.50;0.50;;;;;;;6.24;93.98;97227.91;29395;204;63005;-58
2023/04/18 01:28:37;;;;;;;0.50;0.50;;;;;;;6.23;94.25;97215.53;29395;213;63009;-57
2023/04/18 01:29:09;;;;;;;0.60;0.60;;;;;;;6.23;94.65;97220.94;29395;206;63010;-59
2023/04/18 01:29:40;;;;;;;0.80;0.80;;;;;;;6.22;94.45;97222.00;29395;222;63009;-59
2023/04/18 01:30:12;;;;;;;0.50;0.50;;;;;;;6.21;94.31;97223.06;29395;226;63004;-58
2023/04/18 01:30:44;;;;;;;0.50;0.50;;;;;;;6.21;94.41;97217.66;29394;255;64013;-58
2023/04/18 01:31:15;;;;;;;0.60;0.60;;;;;;;6.21;94.30;97214.97;29395;236;63004;-59
2023/04/18 01:31:46;;;;;;;0.50;0.50;;;;;;;6.20;94.09;97216.03;29395;361;63008;-58
2023/04/18 01:32:19;;;;;;;0.60;0.60;;;;;;;6.20;94.37;97216.84;29395;209;63005;-59
2023/04/18 01:32:50;;;;;;;0.50;0.50;;;;;;;6.20;94.27;97211.47;29394;215;64014;-59
2023/04/18 01:33:22;;;;;;;0.60;0.60;;;;;;;6.20;94.19;97216.03;29395;299;63010;-58
2023/04/18 01:33:53;;;;;;;0.50;0.50;;;;;;;6.20;94.27;97216.03;29394;238;64014;-58
2023/04/18 01:34:25;;;;;;;0.60;0.60;;;;;;;6.21;94.14;97217.66;29395;379;63005;-58
2023/04/18 01:34:56;;;;;;;0.50;0.50;;;;;;;6.20;94.57;97213.34;29395;257;63009;-58
2023/04/18 01:35:28;;;;;;;0.50;0.50;;;;;;;6.20;94.10;97216.03;29395;198;63005;-58
2023/04/18 01:35:59;;;;;;;0.50;0.50;;;;;;;6.20;94.24;97210.66;29395;214;63009;-58
2023/04/18 01:36:32;;;;;;;0.50;0.50;;;;;;;6.19;94.66;97217.13;29394;202;64009;-59
2023/04/18 01:37:03;;;;;;;0.50;0.50;;;;;;;6.17;94.48;97211.16;29395;254;63009;-58
2023/04/18 01:37:35;;;;;;;0.50;0.50;;;;;;;6.16;94.57;97209.53;29395;205;63004;-58
2023/04/18 01:38:06;;;;;;;0.50;0.50;;;;;;;6.15;94.88;97213.31;29395;230;63009;-58
2023/04/18 01:38:37;;;;;;;0.50;0.50;;;;;;;6.15;94.71;97205.22;29395;227;63004;-58
2023/04/18 01:39:09;;;;;;;0.55;0.55;;;;;;;6.15;95.27;97208.72;29395;280;63008;-58
2023/04/18 01:39:40;;;;;;;0.60;0.60;;;;;;;6.18;94.98;97207.41;29395;214;63004;-59
2023/04/18 01:40:13;;;;;;;0.50;0.50;;;;;;;6.18;95.04;97204.72;29395;209;63009;-58
2023/04/18 01:40:44;;;;;;;0.50;0.50;;;;;;;6.18;94.65;97208.22;29395;224;63005;-58
2023/04/18 01:41:15;;;;;;;0.50;0.50;;;;;;;6.18;94.54;97202.84;29394;256;64014;-58
2023/04/18 01:41:47;;;;;;;0.50;0.50;;;;;;;6.20;94.61;97205.28;29395;211;63005;-58
2023/04/18 01:42:18;;;;;;;0.50;0.50;;;;;;;6.20;94.83;97199.88;29394;221;64013;-58
2023/04/18 01:42:50;;;;;;;0.45;0.45;;;;;;;6.20;94.93;97200.69;29395;240;63005;-58
2023/04/18 01:43:21;;;;;;;0.50;0.50;;;;;;;6.21;94.70;97206.91;29395;311;63009;-62
2023/04/18 01:43:53;;;;;;;0.50;0.50;;;;;;;6.22;94.53;97208.53;29395;224;63005;-58
2023/04/18 01:44:24;;;;;;;0.50;0.50;;;;;;;6.20;94.63;97197.19;29394;210;64013;-58
2023/04/18 01:44:56;;;;;;;0.50;0.50;;;;;;;6.19;94.89;97204.47;29395;345;63004;-58
2023/04/18 01:45:27;;;;;;;0.50;0.50;;;;;;;6.21;95.24;97202.31;29395;211;63009;-58
2023/04/18 01:45:58;;;;;;;0.60;0.60;;;;;;;6.20;95.43;97200.69;29395;251;63004;-58
2023/04/18 01:46:30;;;;;;;0.50;0.50;;;;;;;6.21;95.79;97204.19;29395;242;63008;-58
2023/04/18 01:47:02;;;;;;;0.50;0.50;;;;;;;6.20;95.69;97205.28;29395;212;63008;-58
2023/04/18 01:47:33;;;;;;;0.50;0.50;;;;;;;6.20;95.82;97203.37;29394;210;64014;-58
2023/04/18 01:48:06;;;;;;;0.50;0.50;;;;;;;6.19;95.94;97204.47;29395;291;63005;-58
2023/04/18 01:48:37;;;;;;;0.52;0.52;;;;;;;6.19;96.20;97204.47;29395;222;63009;-58
2023/04/18 01:49:08;;;;;;;0.60;0.60;;;;;;;6.19;96.07;97204.47;29395;303;63015;-62
2023/04/18 01:49:45;;;;;;;0.60;0.60;;;;;;;6.18;95.85;97196.63;29395;222;63009;-58
2023/04/18 01:50:16;;;;;;;0.50;0.50;;;;;;;6.17;96.10;97201.19;29394;220;64009;-58
2023/04/18 01:50:48;;;;;;;0.60;0.60;;;;;;;6.17;95.94;97198.50;29395;212;63015;-58
2023/04/18 01:51:19;;;;;;;0.50;0.50;;;;;;;6.17;95.78;97198.50;29395;241;63004;-58
2023/04/18 01:51:50;;;;;;;0.60;0.60;;;;;;;6.18;95.68;97202.03;29395;207;63009;-58
2023/04/18 01:52:22;;;;;;;0.50;0.50;;;;;;;6.19;95.97;97209.03;29395;372;63000;-57
2023/04/18 01:52:53;;;;;;;0.50;0.50;;;;;;;6.18;95.93;97202.03;29395;202;63009;-58
2023/04/18 01:53:25;;;;;;;0.50;0.50;;;;;;;6.19;95.94;97198.25;29395;225;63004;-58
2023/04/18 01:53:56;;;;;;;0.50;0.50;;;;;;;6.19;95.89;97199.06;29395;213;63008;-58
2023/04/18 01:54:28;;;;;;;0.60;0.60;;;;;;;6.19;96.13;97195.56;29394;198;64001;-58
2023/04/18 01:55:01;;;;;;;0.50;0.50;;;;;;;6.19;96.12;97196.37;29395;208;63009;-58
2023/04/18 01:55:32;;;;;;;1.30;1.17;;;;;;;6.20;96.15;97195.31;29395;250;63005;-59
2023/04/18 01:56:04;;;;;;;0.50;0.50;;;;;;;6.21;96.25;97204.19;29395;236;63009;-60
2023/04/18 01:56:35;;;;;;;0.57;0.57;;;;;;;6.20;95.61;97195.31;29395;225;63005;-59
2023/04/18 01:57:07;;;;;;;0.60;0.60;;;;;;;6.21;95.69;97191.53;29395;222;63009;-60
2023/04/18 01:57:38;;;;;;;0.50;0.50;;;;;;;6.20;95.63;97199.88;29395;219;63018;-58
2023/04/18 01:58:09;;;;;;;0.60;0.60;;;;;;;6.20;95.75;97198.00;29395;276;63009;-59
2023/04/18 01:58:41;;;;;;;0.50;0.50;;;;;;;6.20;95.55;97197.19;29395;281;63004;-58
2023/04/18 01:59:13;;;;;;;0.50;0.50;;;;;;;6.21;95.99;97202.31;29395;202;63009;-59
2023/04/18 01:59:44;;;;;;;0.50;0.50;;;;;;;6.21;95.85;97196.13;29394;206;64009;-58
2023/04/18 02:00:16;;;;;;;0.60;0.60;;;;;;;6.22;95.69;97197.75;29394;211;64013;-59
2023/04/18 02:00:50;;;;;;;0.50;0.50;;;;;;;6.22;96.14;97203.94;29395;207;63004;-58
2023/04/18 02:01:21;;;;;;;0.50;0.50;;;;;;;6.22;96.22;97198.56;29395;208;63008;-57
2023/04/18 02:01:52;;;;;;;0.50;0.50;;;;;;;6.21;96.20;97201.50;29395;197;63005;-60
2023/04/18 02:02:24;;;;;;;0.60;0.60;;;;;;;6.20;96.05;97199.88;29394;314;64014;-58
2023/04/18 02:02:59;;;;;;;0.60;0.60;;;;;;;6.19;95.78;97198.25;29395;284;63005;-58
2023/04/18 02:03:30;;;;;;;0.50;0.50;;;;;;;6.18;95.67;97202.03;29395;278;63009;-58
2023/04/18 02:04:01;;;;;;;0.50;0.50;;;;;;;6.15;95.62;97197.13;29395;206;63005;-57
2023/04/18 02:04:33;;;;;;;0.50;0.50;;;;;;;6.16;95.94;97204.16;29394;211;64013;-59
2023/04/18 02:05:05;;;;;;;0.50;0.50;;;;;;;6.15;95.89;97197.94;29395;318;63005;-59
2023/04/18 02:05:36;;;;;;;0.50;0.50;;;;;;;6.15;95.29;97199.84;29395;197;63009;-58
2023/04/18 02:06:08;;;;;;;0.50;0.50;;;;;;;6.15;95.43;97192.56;29395;260;63000;-58
2023/04/18 02:06:40;;;;;;;0.50;0.50;;;;;;;6.16;95.72;97196.06;29395;293;63009;-57
2023/04/18 02:07:11;;;;;;;0.50;0.50;;;;;;;6.17;95.80;97197.69;29396;197;63004;-58
2023/04/18 02:07:42;;;;;;;0.60;0.60;;;;;;;6.16;95.77;97198.75;29396;197;63004;-58
2023/04/18 02:08:14;;;;;;;0.50;0.50;;;;;;;6.17;95.94;97200.41;29395;214;64009;-59
2023/04/18 02:08:45;;;;;;;0.50;0.50;;;;;;;6.16;95.85;97196.06;29396;221;63008;-58
2023/04/18 02:09:17;;;;;;;0.60;0.60;;;;;;;6.16;95.67;97196.06;29396;227;63005;-58
2023/04/18 02:09:48;;;;;;;0.50;0.50;;;;;;;6.16;95.97;97196.87;29396;251;63009;-58
2023/04/18 02:10:20;;;;;;;0.50;0.50;;;;;;;6.17;96.02;97195.00;29395;222;64009;-59
2023/04/18 02:10:51;;;;;;;0.60;0.60;;;;;;;6.16;95.90;97194.19;29396;262;63009;-58
2023/04/18 02:11:23;;;;;;;0.50;0.50;;;;;;;6.16;96.00;97196.06;29396;262;63005;-58
2023/04/18 02:11:58;;;;;;;0.50;0.50;;;;;;;6.17;95.83;97195.00;29395;212;64013;-58
2023/04/18 02:12:31;;;;;;;0.60;0.60;;;;;;;6.17;96.04;97195.00;29396;208;63005;-58
2023/04/18 02:13:05;;;;;;;0.57;0.57;;;;;;;6.18;96.04;97194.75;29396;227;63009;-58
2023/04/18 02:13:36;;;;;;;0.50;0.50;;;;;;;6.20;96.17;97197.19;29396;196;63004;-58
2023/04/18 02:14:08;;;;;;;0.50;0.50;;;;;;;6.20;96.10;97202.56;29395;202;64013;-59
2023/04/18 02:14:39;;;;;;;0.50;0.50;;;;;;;6.19;95.85;97198.25;29396;365;63004;-58
2023/04/18 02:15:10;;;;;;;0.50;0.50;;;;;;;6.19;96.09;97198.25;29396;219;63009;-58
2023/04/18 02:15:44;;;;;;;0.50;0.50;;;;;;;6.16;95.63;97194.19;29396;203;63010;-58
2023/04/18 02:16:16;;;;;;;0.50;0.50;;;;;;;6.17;95.90;97195.00;29396;212;63008;-58
2023/04/18 02:16:47;;;;;;;0.50;0.50;;;;;;;6.17;95.71;97200.41;29395;203;64009;-58
2023/04/18 02:17:20;;;;;;;0.60;0.60;;;;;;;6.17;95.76;97192.31;29396;234;63009;-57
2023/04/18 02:29:20;;;;;;;0.59;0.59;;;;;;;6.08;96.46;97199.22;88122;209;64005;-91
2023/04/18 02:29:52;;;;;;;0.60;0.60;;;;;;;6.08;96.44;97196.53;29394;223;64009;-93
2023/04/18 02:30:25;;;;;;;0.50;0.50;;;;;;;6.08;96.37;97193.84;29395;298;63005;-90
2023/04/18 02:31:02;;;;;;;0.60;0.60;;;;;;;6.08;96.59;97196.53;29394;220;64013;-91
2023/04/18 02:31:36;;;;;;;0.55;0.55;;;;;;;6.09;96.86;97195.47;29395;336;63005;-92
2023/04/18 02:32:08;;;;;;;0.50;0.50;;;;;;;6.09;95.80;97192.78;29395;199;63017;-92
2023/04/18 02:32:41;;;;;;;0.50;0.50;;;;;;;6.05;95.00;97198.66;29395;231;63005;-91
2023/04/18 02:34:26;;;;;;;0.64;0.64;;;;;;;6.01;94.89;97200.25;88176;196;63994;-91
2023/04/18 02:34:58;;;;;;;0.50;0.50;;;;;;;6.01;95.27;97197.56;29394;239;64009;-91
2023/04/18 02:36:27;;;;;;;;;;;;;;;;;;;;;
2023/04/18 02:40:17;;;;;;;0.60;0.60;;;;;;;5.99;94.72;97198.88;29395;282;63016;-94
2023/04/18 02:42:26;;;;;;;;;;;;;;;;;;;;;
2023/04/18 02:44:10;;;;;;;0.60;0.60;;;;;;;5.95;95.05;97192.38;29416;215;64009;-93
2023/04/18 02:46:04;;;;;;;0.57;0.57;;;;;;;5.96;95.28;97186.72;29394;218;64013;-94
2023/04/18 02:48:08;;;;;;;;;;;;;;;;;;;;;
2023/04/18 02:50:17;;;;;;;0.60;0.60;;;;;;;5.95;96.36;97187.78;29394;283;64013;-91
2023/04/18 02:55:50;;;;;;;0.60;0.60;;;;;;;5.90;96.62;97190.44;29394;276;64009;-90
2023/04/18 03:29:06;;;;;;;0.60;0.60;;;;;;;5.80;94.89;97190.34;29394;221;64009;-93
2023/04/18 03:29:42;;;;;;;0.50;0.50;;;;;;;5.83;95.40;97195.22;29395;220;63004;-93
2023/04/18 03:30:24;;;;;;;0.60;0.60;;;;;;;5.82;95.05;97185.50;29395;249;63009;-92
2023/04/18 03:31:32;;;;;;;0.60;0.60;;;;;;;5.80;94.41;97195.72;29394;227;64008;-93
2023/04/18 03:32:09;;;;;;;0.52;0.52;;;;;;;5.76;94.61;97189.22;29395;246;63009;-92
2023/04/18 03:32:43;;;;;;;0.50;0.50;;;;;;;5.75;95.17;97198.38;29395;283;63005;-93
2023/04/18 03:33:15;;;;;;;0.50;0.50;;;;;;;5.74;95.41;97185.97;29395;274;63009;-92
2023/04/18 03:33:54;;;;;;;0.60;0.60;;;;;;;5.74;95.33;97194.03;29439;203;63005;-92
2023/04/18 03:34:48;;;;;;;0.50;0.50;;;;;;;5.72;95.51;97185.41;29373;239;63009;-91
2023/04/18 03:36:17;;;;;;;;;;;;;;;;;;;;;
2023/04/18 03:37:56;;;;;;;0.50;0.50;;;;;;;5.68;95.91;97195.06;29394;230;64013;-90
2023/04/18 03:43:31;;;;;;;;;;;;;;;;;;;;;
2023/04/18 03:53:35;;;;;;;;;;;;;;;;;;;;;
2023/04/18 03:57:01;;;;;;;;;;;;;;;;;;;;;
2023/04/18 03:58:47;;;;;;;;;;;;;;;;;;;;;
2023/04/18 04:06:36;;;;;;;0.60;0.60;;;;;;;5.53;95.80;97198.41;29393;202;64009;-58
2023/04/18 04:07:08;;;;;;;0.60;0.60;;;;;;;5.54;95.73;97205.44;29394;196;64009;-58
2023/04/18 04:07:39;;;;;;;0.60;0.60;;;;;;;5.55;95.63;97198.94;29395;268;63004;-58
2023/04/18 04:08:10;;;;;;;0.50;0.50;;;;;;;5.55;95.86;97203.53;29395;223;63008;-58
2023/04/18 04:08:42;;;;;;;0.60;0.60;;;;;;;5.54;95.91;97197.34;29395;204;63005;-57